Time;durP1;ratioP1;P1;durP2;ratioP2;P2;SDS_P1;SDS_P2;PMS_P1;PMS_P2;Temp;Humidity;BMP_temperature;BMP_pressure;BME280_temperature;BME280_humidity;BME280_pressure;Samples;Min_cycle;Max_cycle;Signal;HPM_P1;HPM_P2
2022/12/14 00:01:07;;;;;;;21.92;15.90;;;5.90;74.80;;;;;;5054838;28;20040;-79
2022/12/14 00:03:33;;;;;;;25.55;16.52;;;5.80;75.50;;;;;;5054948;28;20024;-76
2022/12/14 00:05:59;;;;;;;22.75;16.17;;;5.90;74.80;;;;;;5054908;28;20029;-79
2022/12/14 00:08:24;;;;;;;26.08;17.02;;;6.00;74.60;;;;;;5054792;28;20020;-76
2022/12/14 00:10:50;;;;;;;24.33;16.52;;;6.00;74.30;;;;;;5054759;28;20113;-78
2022/12/14 00:13:15;;;;;;;25.92;16.15;;;6.10;74.00;;;;;;5054597;28;20115;-77
2022/12/14 00:15:41;;;;;;;24.90;16.00;;;6.00;74.20;;;;;;5054841;28;20030;-80
2022/12/14 00:18:07;;;;;;;22.48;16.38;;;5.90;74.60;;;;;;5054673;28;20032;-79
2022/12/14 00:20:33;;;;;;;23.58;15.48;;;5.80;74.70;;;;;;5053169;28;20492;-79
2022/12/14 00:22:59;;;;;;;24.77;16.58;;;5.80;74.70;;;;;;5054425;28;20033;-76
2022/12/14 00:25:25;;;;;;;23.88;15.73;;;5.80;74.80;;;;;;5054643;28;20017;-80
2022/12/14 00:27:50;;;;;;;23.48;16.23;;;5.70;75.00;;;;;;5053146;28;20396;-80
2022/12/14 00:30:18;;;;;;;22.73;16.08;;;5.70;74.80;;;;;;5054702;28;20029;-76
2022/12/14 00:32:44;;;;;;;21.92;15.27;;;5.70;75.30;;;;;;5054115;28;20071;-81
2022/12/14 00:35:12;;;;;;;24.30;15.48;;;5.70;75.00;;;;;;5054550;28;20025;-79
2022/12/14 00:37:38;;;;;;;24.30;16.33;;;5.60;75.10;;;;;;5053970;28;20025;-81
2022/12/14 00:40:06;;;;;;;23.95;15.27;;;5.60;75.10;;;;;;5054503;28;20086;-81
2022/12/14 00:42:32;;;;;;;25.67;15.73;;;5.50;75.30;;;;;;5054187;28;20033;-79
2022/12/14 00:44:58;;;;;;;23.73;16.40;;;5.70;74.60;;;;;;5054343;28;20021;-79
2022/12/14 00:47:24;;;;;;;25.65;16.20;;;5.70;74.80;;;;;;5054134;28;20492;-81
2022/12/14 00:49:49;;;;;;;25.38;16.27;;;5.50;75.00;;;;;;5054000;28;20021;-71
2022/12/14 00:52:15;;;;;;;21.80;15.25;;;5.60;75.00;;;;;;5053995;28;20567;-81
2022/12/14 00:54:41;;;;;;;24.75;15.45;;;5.70;74.70;;;;;;5053631;28;20020;-79
2022/12/14 00:57:06;;;;;;;23.25;15.93;;;5.70;74.60;;;;;;5054327;28;20033;-81
2022/12/14 00:59:32;;;;;;;24.52;15.55;;;5.70;74.40;;;;;;5053051;28;20029;-81
2022/12/14 01:01:57;;;;;;;21.73;14.80;;;5.70;74.30;;;;;;5052626;28;20029;-81
2022/12/14 01:04:24;;;;;;;22.05;14.73;;;5.90;74.10;;;;;;5053802;28;20029;-81
2022/12/14 01:06:51;;;;;;;21.95;15.40;;;5.80;74.10;;;;;;5052624;28;20025;-79
2022/12/14 01:09:18;;;;;;;23.95;15.05;;;5.80;74.50;;;;;;5053950;28;20021;-78
2022/12/14 01:11:45;;;;;;;24.25;15.43;;;5.70;74.70;;;;;;5056772;28;20033;-76
2022/12/14 01:14:16;;;;;;;22.95;15.85;;;5.70;74.70;;;;;;5056754;28;20112;-77
2022/12/14 01:16:42;;;;;;;22.35;15.30;;;5.70;74.70;;;;;;5056936;28;20029;-79
2022/12/14 01:19:11;;;;;;;23.92;15.75;;;5.60;74.50;;;;;;5056410;28;20032;-80
2022/12/14 01:21:37;;;;;;;23.67;15.48;;;5.60;74.80;;;;;;5056711;28;20084;-80
2022/12/14 01:24:04;;;;;;;24.48;14.80;;;5.60;74.80;;;;;;5056908;28;20021;-79
2022/12/14 01:26:34;;;;;;;23.80;15.68;;;5.60;74.90;;;;;;5057166;28;20036;-77
2022/12/14 01:29:00;;;;;;;24.25;14.98;;;5.60;74.90;;;;;;5053803;28;20029;-81
2022/12/14 01:31:29;;;;;;;19.90;14.70;;;5.60;75.00;;;;;;5053550;28;20021;-80
2022/12/14 01:33:55;;;;;;;22.73;16.33;;;5.50;75.20;;;;;;5052906;28;20474;-81
2022/12/14 01:36:25;;;;;;;22.52;15.90;;;5.50;75.20;;;;;;5053117;28;20025;-81
2022/12/14 01:38:56;;;;;;;21.33;15.25;;;5.60;75.00;;;;;;5053109;28;20025;-81
2022/12/14 01:41:27;;;;;;;20.45;14.80;;;5.50;74.90;;;;;;5053252;28;20098;-81
2022/12/14 01:44:01;;;;;;;21.83;14.52;;;5.50;74.90;;;;;;5053462;28;20044;-79
2022/12/14 01:46:44;;;;;;;21.13;14.80;;;5.50;74.70;;;;;;5053260;28;20048;-81
2022/12/14 01:49:18;;;;;;;21.10;14.77;;;5.50;74.80;;;;;;5052763;28;20021;-80
2022/12/14 01:51:51;;;;;;;20.77;14.57;;;5.50;74.80;;;;;;5053064;28;20478;-81
2022/12/14 01:54:18;;;;;;;25.00;15.55;;;5.50;74.70;;;;;;5052964;28;20028;-78
2022/12/14 01:56:44;;;;;;;21.35;15.32;;;5.50;74.70;;;;;;5053080;28;20108;-79
2022/12/14 01:59:17;;;;;;;21.40;14.95;;;5.50;74.80;;;;;;5053075;28;20056;-80
2022/12/14 02:01:44;;;;;;;20.38;14.88;;;5.40;74.70;;;;;;5052987;28;20086;-79
2022/12/14 02:04:12;;;;;;;23.70;15.55;;;5.50;74.50;;;;;;5051167;28;20422;-79
2022/12/14 02:06:41;;;;;;;20.67;13.88;;;5.50;74.50;;;;;;5052683;28;20113;-79
2022/12/14 02:09:13;;;;;;;21.13;14.05;;;5.60;74.20;;;;;;5051589;28;20045;-80
2022/12/14 02:11:48;;;;;;;23.67;15.35;;;5.50;74.80;;;;;;5053017;28;20031;-79
2022/12/14 02:14:14;;;;;;;23.73;15.27;;;5.40;74.70;;;;;;5047266;28;20034;-79
2022/12/14 02:16:40;;;;;;;21.85;15.10;;;5.40;74.90;;;;;;5032825;28;20037;-80
2022/12/14 02:19:06;;;;;;;20.60;15.05;;;5.40;75.20;;;;;;5032520;28;20025;-78
2022/12/14 02:21:46;;;;;;;22.55;14.93;;;5.50;74.70;;;;;;5032849;28;20365;-80
2022/12/14 02:24:29;;;;;;;20.98;14.45;;;5.40;75.00;;;;;;5032897;28;20017;-80
2022/12/14 02:27:13;;;;;;;;;;;5.40;74.80;;;;;;5033370;28;20454;-76
2022/12/14 02:29:50;;;;;;;22.83;14.85;;;5.50;75.00;;;;;;5032689;28;19905;-78
2022/12/14 02:32:34;;;;;;;21.58;14.07;;;5.40;75.20;;;;;;5032536;28;20017;-78
2022/12/14 02:35:27;;;;;;;21.33;14.57;;;5.40;75.50;;;;;;5032760;28;20053;-79
2022/12/14 02:38:22;;;;;;;22.00;15.02;;;5.40;75.30;;;;;;5032588;28;20096;-79
2022/12/14 02:41:15;;;;;;;22.23;14.85;;;5.40;75.20;;;;;;5032351;28;20037;-79
2022/12/14 02:44:01;;;;;;;18.45;14.07;;;5.40;74.90;;;;;;5032650;28;20033;-77
2022/12/14 02:46:32;;;;;;;20.17;14.55;;;5.50;74.70;;;;;;5031288;28;20048;-78
2022/12/14 02:49:34;;;;;;;21.52;14.82;;;5.40;74.70;;;;;;5032690;28;20074;-79
2022/12/14 02:52:06;;;;;;;22.25;15.27;;;5.30;75.20;;;;;;4978856;28;20177;-79
2022/12/14 02:54:47;;;;;;;22.50;15.20;;;5.40;75.60;;;;;;5032510;28;20037;-79
2022/12/14 02:57:19;;;;;;;22.50;14.60;;;5.20;75.80;;;;;;5031610;28;20026;-78
2022/12/14 02:59:48;;;;;;;23.38;15.23;;;5.30;75.40;;;;;;5032303;28;20057;-78
2022/12/14 03:02:14;;;;;;;23.23;14.50;;;5.30;75.50;;;;;;5032103;28;20032;-74
2022/12/14 03:04:44;;;;;;;22.60;15.00;;;5.30;75.70;;;;;;5032509;28;20028;-79
2022/12/14 03:07:35;;;;;;;21.00;14.23;;;5.30;75.20;;;;;;5031298;28;20040;-75
2022/12/14 03:10:15;;;;;;;21.63;13.57;;;5.20;75.60;;;;;;5032358;28;20032;-78
2022/12/14 03:12:44;;;;;;;21.13;13.18;;;5.30;75.40;;;;;;5032469;28;20037;-78
2022/12/14 03:15:11;;;;;;;20.02;13.77;;;5.30;75.60;;;;;;5031962;28;20045;-78
2022/12/14 03:17:39;;;;;;;22.42;14.82;;;5.30;75.50;;;;;;5035508;28;20025;-76
2022/12/14 03:20:10;;;;;;;24.02;14.93;;;5.40;75.40;;;;;;5034632;28;20025;-78
2022/12/14 03:22:51;;;;;;;21.75;14.10;;;5.30;75.60;;;;;;5036117;28;20029;-73
2022/12/14 03:25:23;;;;;;;21.33;15.50;;;5.30;75.70;;;;;;5035705;28;20127;-71
2022/12/14 03:28:05;;;;;;;19.80;13.75;;;5.20;75.50;;;;;;5035837;28;20078;-73
2022/12/14 03:30:34;;;;;;;22.17;14.18;;;5.20;75.80;;;;;;5035418;28;20037;-76
2022/12/14 03:33:06;;;;;;;19.85;13.45;;;5.30;75.80;;;;;;5035824;28;20100;-78
2022/12/14 03:35:38;;;;;;;21.35;15.02;;;5.20;75.70;;;;;;5035908;28;20029;-78
2022/12/14 03:38:28;;;;;;;20.33;13.98;;;5.20;75.70;;;;;;5036023;28;20049;-76
2022/12/14 03:41:11;;;;;;;19.88;14.15;;;5.10;76.00;;;;;;5035581;28;20553;-75
2022/12/14 03:43:45;;;;;;;19.63;13.95;;;5.20;75.70;;;;;;5035545;28;20033;-71
2022/12/14 03:46:34;;;;;;;20.15;13.65;;;5.10;75.90;;;;;;5035124;28;20398;-77
2022/12/14 03:49:36;;;;;;;19.38;13.95;;;5.10;75.90;;;;;;5035697;28;20478;-75
2022/12/14 03:52:11;;;;;;;21.95;14.70;;;5.10;75.70;;;;;;5012457;28;20033;-77
2022/12/14 03:55:07;;;;;;;19.58;14.48;;;5.20;75.50;;;;;;5035630;28;20033;-77
2022/12/14 03:57:47;;;;;;;19.23;14.15;;;5.20;75.30;;;;;;5035361;28;20033;-73
2022/12/14 04:00:21;;;;;;;20.13;14.02;;;5.20;75.50;;;;;;5050655;28;20124;-73
2022/12/14 04:02:58;;;;;;;20.88;13.77;;;5.10;75.70;;;;;;5035929;28;20022;-77
2022/12/14 04:05:39;;;;;;;21.85;14.15;;;5.20;75.50;;;;;;5034851;28;20017;-72
2022/12/14 04:08:18;;;;;;;20.98;14.85;;;5.20;75.60;;;;;;5036157;28;20353;-76
2022/12/14 04:19:19;;;;;;;23.83;14.45;;;5.20;75.60;;;;;;5035472;28;20044;-75
2022/12/14 04:21:51;;;;;;;21.63;14.63;;;5.20;75.70;;;;;;5043257;28;20127;-72
2022/12/14 04:27:49;;;;;;;21.02;14.38;;;5.30;75.60;;;;;;5032695;28;20071;-72
2022/12/14 04:30:15;;;;;;;24.65;14.43;;;5.10;76.10;;;;;;5020190;28;20156;-73
2022/12/14 04:32:47;;;;;;;21.13;14.65;;;5.20;76.20;;;;;;5034582;28;20025;-76
2022/12/14 04:35:15;;;;;;;22.92;15.20;;;5.00;76.70;;;;;;5034595;28;20127;-75
2022/12/14 04:37:46;;;;;;;20.50;14.35;;;5.10;76.50;;;;;;5034372;28;20018;-76
2022/12/14 04:40:15;;;;;;;20.48;14.30;;;5.20;76.20;;;;;;5034384;28;20037;-77
2022/12/14 04:42:50;;;;;;;20.40;15.25;;;5.30;75.60;;;;;;5034713;28;20029;-75
2022/12/14 04:45:38;;;;;;;21.15;14.50;;;5.30;75.70;;;;;;5035542;28;20021;-76
2022/12/14 04:48:45;;;;;;;21.20;14.93;;;5.10;76.20;;;;;;5035336;28;20556;-73
2022/12/14 04:51:18;;;;;;;23.60;14.73;;;5.20;76.20;;;;;;5003330;28;20034;-76
2022/12/14 04:53:49;;;;;;;20.85;14.05;;;5.20;76.10;;;;;;5036613;28;20063;-75
2022/12/14 04:56:28;;;;;;;20.15;14.60;;;5.20;76.10;;;;;;5035467;28;20024;-75
2022/12/14 04:58:54;;;;;;;22.38;15.55;;;5.10;76.40;;;;;;5034940;28;20370;-73
2022/12/14 05:01:58;;;;;;;19.88;13.98;;;5.20;76.40;;;;;;5035027;28;20120;-75
2022/12/14 05:04:55;;;;;;;19.23;13.32;;;5.10;76.70;;;;;;5021530;28;20030;-74
2022/12/14 05:07:30;;;;;;;22.42;14.73;;;5.10;76.60;;;;;;5034437;28;20544;-75
2022/12/14 05:10:02;;;;;;;23.48;15.43;;;5.10;77.00;;;;;;5034168;28;20049;-76
2022/12/14 05:12:45;;;;;;;19.27;13.52;;;5.10;77.10;;;;;;5033735;28;20060;-76
2022/12/14 05:15:18;;;;;;;24.67;16.17;;;5.10;76.70;;;;;;5034009;28;20045;-76
2022/12/14 05:17:45;;;;;;;20.80;13.93;;;5.10;76.70;;;;;;5032492;28;20025;-77
2022/12/14 05:20:22;;;;;;;21.45;14.55;;;5.10;76.90;;;;;;5034138;28;20049;-74
2022/12/14 05:22:48;;;;;;;21.60;14.57;;;5.00;76.80;;;;;;5034803;28;20040;-77
2022/12/14 05:25:14;;;;;;;22.35;14.10;;;5.10;76.70;;;;;;5034742;28;20021;-72
2022/12/14 05:27:40;;;;;;;20.95;14.18;;;5.10;76.50;;;;;;5034019;28;20452;-76
2022/12/14 05:30:07;;;;;;;24.15;15.25;;;5.00;76.70;;;;;;5033722;28;20071;-75
2022/12/14 05:32:33;;;;;;;23.88;15.35;;;5.10;76.60;;;;;;5033581;28;20108;-76
2022/12/14 05:34:58;;;;;;;21.15;13.55;;;5.10;76.50;;;;;;5033507;28;20469;-73
2022/12/14 05:37:24;;;;;;;23.30;15.18;;;5.10;76.40;;;;;;5032257;28;20022;-75
2022/12/14 05:39:50;;;;;;;22.33;14.57;;;5.00;76.80;;;;;;5043963;28;20355;-74
2022/12/14 05:42:16;;;;;;;24.17;15.32;;;5.00;76.60;;;;;;5052621;28;20072;-76
2022/12/14 05:44:41;;;;;;;25.35;16.38;;;5.10;76.40;;;;;;5051020;28;20112;-72
2022/12/14 05:47:07;;;;;;;21.35;14.38;;;5.20;76.10;;;;;;5052221;28;20188;-74
2022/12/14 05:49:33;;;;;;;23.73;14.07;;;5.20;76.30;;;;;;5053595;28;20021;-76
2022/12/14 05:51:59;;;;;;;21.77;14.32;;;4.70;76.80;;;;;;5048810;28;20017;-73
2022/12/14 05:54:25;;;;;;;19.77;13.77;;;4.40;76.30;;;;;;5046677;28;20200;-78
2022/12/14 05:56:51;;;;;;;22.08;15.43;;;4.20;76.40;;;;;;5048733;28;20109;-75
2022/12/14 05:59:16;;;;;;;22.17;15.45;;;4.70;78.40;;;;;;5049237;28;20037;-76
2022/12/14 06:01:43;;;;;;;21.52;14.45;;;5.10;77.40;;;;;;5047087;28;20077;-77
2022/12/14 06:04:13;;;;;;;23.58;15.40;;;5.40;76.40;;;;;;5046522;28;20021;-77
2022/12/14 06:06:38;;;;;;;20.70;14.55;;;5.60;75.90;;;;;;5038377;28;20485;-74
2022/12/14 06:09:06;;;;;;;22.45;14.20;;;5.80;75.10;;;;;;5044655;28;20044;-75
2022/12/14 06:11:32;;;;;;;21.13;15.32;;;5.70;75.60;;;;;;5052635;28;20036;-75
2022/12/14 06:13:57;;;;;;;23.17;14.30;;;5.60;75.90;;;;;;5052721;28;20037;-74
2022/12/14 06:16:24;;;;;;;22.00;14.63;;;5.70;76.00;;;;;;5052583;28;20389;-74
2022/12/14 06:18:52;;;;;;;20.08;14.60;;;5.80;75.90;;;;;;5052152;28;20108;-75
2022/12/14 06:21:19;;;;;;;20.33;14.18;;;5.80;75.80;;;;;;5051884;28;20033;-75
2022/12/14 06:23:45;;;;;;;24.25;15.57;;;5.90;75.60;;;;;;5052302;28;20017;-76
2022/12/14 06:26:11;;;;;;;19.17;13.38;;;5.90;75.90;;;;;;5050738;28;20028;-75
2022/12/14 06:28:37;;;;;;;20.95;14.98;;;5.90;76.00;;;;;;5050581;28;20033;-76
2022/12/14 06:31:03;;;;;;;20.55;14.57;;;5.90;75.70;;;;;;5040848;28;20231;-75
2022/12/14 06:33:31;;;;;;;21.65;15.13;;;6.00;75.80;;;;;;5045192;28;20064;-75
2022/12/14 06:35:57;;;;;;;19.08;13.32;;;6.00;75.50;;;;;;5048501;28;20033;-77
2022/12/14 06:38:23;;;;;;;21.98;15.10;;;6.00;75.30;;;;;;5039178;28;20037;-72
2022/12/14 06:40:49;;;;;;;25.38;17.30;;;5.90;75.10;;;;;;5048569;28;20040;-71
2022/12/14 06:43:14;;;;;;;26.63;18.83;;;6.10;75.00;;;;;;5045884;28;20033;-71
2022/12/14 06:45:40;;;;;;;25.38;19.02;;;6.10;74.80;;;;;;5050063;28;20087;-77
2022/12/14 06:48:06;;;;;;;25.90;18.17;;;6.00;74.90;;;;;;5041899;28;20057;-74
2022/12/14 06:50:32;;;;;;;28.25;19.55;;;6.10;75.20;;;;;;5046871;28;20433;-76
2022/12/14 06:52:58;;;;;;;27.48;19.65;;;6.30;73.80;;;;;;5044001;28;20029;-72
2022/12/14 06:55:24;;;;;;;28.60;19.60;;;6.20;74.20;;;;;;5047882;28;20537;-80
2022/12/14 06:57:51;;;;;;;29.70;21.63;;;6.10;74.50;;;;;;5049232;28;20024;-79
2022/12/14 07:00:22;;;;;;;35.22;22.63;;;6.00;74.50;;;;;;5054614;28;20025;-81
2022/12/14 07:02:49;;;;;;;30.40;19.95;;;6.00;74.70;;;;;;5044893;28;20106;-81
2022/12/14 07:05:15;;;;;;;31.92;20.65;;;6.10;74.50;;;;;;5049310;28;20085;-78
2022/12/14 07:07:41;;;;;;;25.92;17.10;;;5.90;74.90;;;;;;5051400;28;20318;-79
2022/12/14 07:10:08;;;;;;;28.60;17.60;;;5.90;75.00;;;;;;5051765;28;20470;-69
2022/12/14 07:12:34;;;;;;;29.73;17.33;;;5.90;75.00;;;;;;5051444;28;20078;-77
2022/12/14 07:15:00;;;;;;;34.15;19.17;;;6.00;74.80;;;;;;5055486;28;20420;-71
2022/12/14 07:17:26;;;;;;;29.33;16.98;;;6.00;74.60;;;;;;5048240;28;20040;-71
2022/12/14 07:19:52;;;;;;;28.05;16.95;;;5.90;75.00;;;;;;5051503;28;20104;-73
2022/12/14 07:22:18;;;;;;;33.10;16.58;;;5.80;75.50;;;;;;5054092;28;20049;-74
2022/12/14 07:24:44;;;;;;;31.67;16.67;;;5.80;75.40;;;;;;5055791;28;20027;-81
2022/12/14 07:27:09;;;;;;;33.30;17.10;;;5.70;75.40;;;;;;5052732;28;20408;-69
2022/12/14 07:29:35;;;;;;;26.48;15.48;;;5.80;75.30;;;;;;5051141;28;20024;-71
2022/12/14 07:32:00;;;;;;;28.75;16.70;;;5.70;75.50;;;;;;5055349;28;20571;-71
2022/12/14 07:34:26;;;;;;;24.77;16.50;;;5.60;75.60;;;;;;5055621;28;20029;-71
2022/12/14 07:36:52;;;;;;;26.67;15.68;;;5.60;75.70;;;;;;5053718;28;20031;-71
2022/12/14 07:39:18;;;;;;;25.02;16.55;;;5.50;76.00;;;;;;5055515;28;20100;-72
2022/12/14 07:41:46;;;;;;;25.05;17.33;;;5.40;76.40;;;;;;5055476;28;20069;-71
2022/12/14 07:44:12;;;;;;;24.60;16.95;;;5.20;76.60;;;;;;5054097;28;20115;-71
2022/12/14 07:46:38;;;;;;;28.05;15.52;;;5.30;76.70;;;;;;5055407;28;20099;-71
2022/12/14 07:49:05;;;;;;;29.75;16.30;;;5.50;76.60;;;;;;5052216;28;20020;-72
2022/12/14 07:51:34;;;;;;;25.83;16.45;;;5.50;76.30;;;;;;5053663;28;20037;-72
2022/12/14 07:54:02;;;;;;;27.33;16.77;;;5.60;75.60;;;;;;5055159;28;20532;-70
2022/12/14 07:56:30;;;;;;;26.63;17.13;;;5.60;75.50;;;;;;5052151;28;20029;-69
2022/12/14 07:58:58;;;;;;;25.02;16.63;;;5.50;76.10;;;;;;5054700;28;20035;-70
2022/12/14 08:01:26;;;;;;;23.00;16.98;;;5.60;76.00;;;;;;5054960;28;20037;-70
2022/12/14 08:03:56;;;;;;;27.05;16.95;;;5.70;76.00;;;;;;5053198;28;20059;-69
2022/12/14 08:06:23;;;;;;;25.48;15.90;;;5.80;75.90;;;;;;5053314;28;20025;-72
2022/12/14 08:08:50;;;;;;;31.85;20.90;;;5.80;76.00;;;;;;5054965;28;20033;-73
2022/12/14 08:11:16;;;;;;;28.52;20.23;;;5.90;75.60;;;;;;5054828;28;20025;-73
2022/12/14 08:13:42;;;;;;;25.65;15.95;;;6.00;75.10;;;;;;5052815;28;20127;-72
2022/12/14 08:16:12;;;;;;;23.65;16.50;;;6.10;75.20;;;;;;5053999;28;20097;-72
2022/12/14 08:18:39;;;;;;;25.83;16.80;;;6.00;75.90;;;;;;5052826;28;20025;-70
2022/12/14 08:21:06;;;;;;;24.63;15.55;;;6.00;75.20;;;;;;5054181;28;20041;-70
2022/12/14 08:23:32;;;;;;;34.22;29.88;;;6.00;75.60;;;;;;5054348;28;20021;-69
2022/12/14 08:26:00;;;;;;;31.60;22.67;;;6.00;75.60;;;;;;5054845;28;20108;-68
2022/12/14 08:28:27;;;;;;;30.30;18.33;;;6.00;75.60;;;;;;5052705;28;20090;-70
2022/12/14 08:30:53;;;;;;;21.23;15.98;;;6.10;75.20;;;;;;5054995;28;20151;-69
2022/12/14 08:33:20;;;;;;;24.13;15.57;;;6.00;75.40;;;;;;5054279;28;20108;-70
2022/12/14 08:35:45;;;;;;;22.20;17.00;;;6.10;75.10;;;;;;5054105;28;20164;-69
2022/12/14 08:38:11;;;;;;;26.70;16.95;;;6.20;74.80;;;;;;5052260;28;20469;-70
2022/12/14 08:40:37;;;;;;;24.55;16.73;;;6.20;74.80;;;;;;5053495;28;20033;-68
2022/12/14 08:43:04;;;;;;;27.30;17.00;;;6.20;74.80;;;;;;5052492;28;20470;-67
2022/12/14 08:45:30;;;;;;;26.30;16.80;;;6.30;74.70;;;;;;5053032;28;20033;-68
2022/12/14 08:47:59;;;;;;;27.00;16.92;;;6.30;74.70;;;;;;5053988;28;20104;-70
2022/12/14 08:50:26;;;;;;;24.05;16.73;;;6.30;74.80;;;;;;5050974;28;20032;-69
2022/12/14 08:52:51;;;;;;;27.92;17.90;;;6.40;74.70;;;;;;5053550;28;20027;-69
2022/12/14 08:55:17;;;;;;;25.58;17.80;;;6.40;74.80;;;;;;5053084;28;20021;-68
2022/12/14 08:57:43;;;;;;;27.00;17.30;;;6.40;74.70;;;;;;5053485;28;20021;-69
2022/12/14 09:00:10;;;;;;;26.85;17.30;;;6.50;74.60;;;;;;5053600;28;20078;-68
2022/12/14 09:02:36;;;;;;;32.13;19.23;;;6.40;74.70;;;;;;5053643;28;20478;-70
2022/12/14 09:05:02;;;;;;;27.67;18.83;;;6.40;74.70;;;;;;5053717;28;20025;-70
2022/12/14 09:07:28;;;;;;;27.35;18.92;;;6.30;74.90;;;;;;5053472;28;20044;-68
2022/12/14 09:09:54;;;;;;;27.85;22.33;;;6.40;75.00;;;;;;5053879;28;20021;-71
2022/12/14 09:12:19;;;;;;;26.50;19.25;;;6.40;74.80;;;;;;5051593;28;20087;-69
2022/12/14 09:14:48;;;;;;;27.55;19.00;;;6.40;75.00;;;;;;5049359;28;20033;-70
2022/12/14 09:17:16;;;;;;;26.30;19.50;;;6.40;75.00;;;;;;5041791;28;20025;-69
2022/12/14 09:19:42;;;;;;;27.65;18.50;;;6.40;75.00;;;;;;5040649;28;20489;-67
2022/12/14 09:22:08;;;;;;;25.05;18.48;;;6.40;75.20;;;;;;5051740;28;20033;-67
2022/12/14 09:24:34;;;;;;;26.33;19.20;;;6.40;75.20;;;;;;5052806;28;20025;-67
2022/12/14 09:27:00;;;;;;;32.78;20.27;;;6.50;75.10;;;;;;5052999;28;20501;-68
2022/12/14 09:29:27;;;;;;;33.45;20.77;;;6.40;75.20;;;;;;5050175;28;20109;-67
2022/12/14 09:31:53;;;;;;;32.17;20.00;;;6.10;76.10;;;;;;5045041;28;20039;-67
2022/12/14 09:34:23;;;;;;;27.52;19.63;;;6.10;76.50;;;;;;5048194;28;20067;-67
2022/12/14 09:36:49;;;;;;;44.88;19.40;;;6.50;75.00;;;;;;5049380;28;20028;-70
2022/12/14 09:39:15;;;;;;;33.13;23.33;;;6.50;76.10;;;;;;5047742;28;20037;-67
2022/12/14 09:41:43;;;;;;;29.80;20.52;;;6.60;74.50;;;;;;5046788;28;20498;-68
2022/12/14 09:44:35;;;;;;;30.88;19.38;;;6.70;74.30;;;;;;5047145;28;20643;-70
2022/12/14 09:47:16;;;;;;;27.95;20.23;;;6.50;74.70;;;;;;5039977;28;20154;-68
2022/12/14 09:49:46;;;;;;;29.80;18.73;;;6.20;76.10;;;;;;5036595;28;20036;-67
2022/12/14 09:52:19;;;;;;;33.10;18.77;;;6.00;76.70;;;;;;5039594;28;20021;-67
2022/12/14 09:54:46;;;;;;;26.45;18.42;;;5.90;77.20;;;;;;5035287;28;20103;-68
2022/12/14 09:57:28;;;;;;;24.58;17.98;;;6.00;76.80;;;;;;5042204;28;20040;-67
2022/12/14 09:59:54;;;;;;;34.93;19.83;;;6.10;76.30;;;;;;5043279;28;20017;-68
2022/12/14 10:02:28;;;;;;;28.27;19.70;;;6.60;75.30;;;;;;5037687;28;20048;-69
2022/12/14 10:05:23;;;;;;;25.00;16.55;;;6.30;75.70;;;;;;5054624;28;20077;-68
2022/12/14 10:08:12;;;;;;;29.48;18.25;;;6.50;76.40;;;;;;5044447;28;20033;-68
2022/12/14 10:10:55;;;;;;;29.35;17.45;;;6.50;75.50;;;;;;5042420;28;20506;-68
2022/12/14 10:13:48;;;;;;;26.75;17.95;;;6.50;75.60;;;;;;5048371;28;20059;-66
2022/12/14 10:16:22;;;;;;;25.40;17.48;;;6.50;75.50;;;;;;5046015;28;20033;-68
2022/12/14 10:19:09;;;;;;;27.75;18.35;;;6.60;75.40;;;;;;5052020;28;20036;-68
2022/12/14 10:21:50;;;;;;;26.27;18.30;;;6.40;75.90;;;;;;5050092;28;20044;-66
2022/12/14 10:24:32;;;;;;;25.27;17.38;;;6.30;76.30;;;;;;5045190;28;20757;-67
2022/12/14 10:26:58;;;;;;;29.45;21.15;;;6.50;75.90;;;;;;5046181;28;20083;-68
2022/12/14 10:29:42;;;;;;;31.98;18.80;;;6.60;76.40;;;;;;5041650;28;20021;-67
2022/12/14 10:32:33;;;;;;;31.05;18.73;;;6.40;75.40;;;;;;5053239;28;20029;-68
2022/12/14 10:35:17;;;;;;;28.23;18.58;;;6.60;74.50;;;;;;5045171;28;20025;-72
2022/12/14 10:37:52;;;;;;;29.40;17.80;;;6.60;74.70;;;;;;5052035;28;20032;-71
2022/12/14 10:40:41;;;;;;;28.52;18.45;;;6.50;74.80;;;;;;5048726;28;20037;-67
2022/12/14 10:43:28;;;;;;;22.95;17.45;;;6.40;75.00;;;;;;5054339;28;20033;-66
2022/12/14 10:46:38;;;;;;;31.40;17.70;;;6.40;75.60;;;;;;5047908;28;20033;-68
2022/12/14 10:49:26;;;;;;;26.23;16.33;;;6.60;75.30;;;;;;5035357;28;20045;-69
2022/12/14 10:52:09;;;;;;;26.60;16.98;;;6.80;74.60;;;;;;5052802;28;20036;-69
2022/12/14 10:54:43;;;;;;;22.85;15.75;;;6.50;75.40;;;;;;5050395;28;20025;-68
2022/12/14 10:57:20;;;;;;;31.10;16.35;;;6.30;75.70;;;;;;5050489;28;20102;-70
2022/12/14 10:59:46;;;;;;;23.17;16.35;;;6.50;75.70;;;;;;5078379;28;20457;-67
2022/12/14 11:02:39;;;;;;;24.52;15.95;;;6.90;74.10;;;;;;5048357;28;20559;-68
2022/12/14 11:05:48;;;;;;;25.48;15.80;;;6.90;74.30;;;;;;5050298;28;20033;-68
2022/12/14 11:08:37;;;;;;;26.77;16.20;;;6.80;74.30;;;;;;5051490;28;20029;-68
2022/12/14 11:11:08;;;;;;;22.90;16.42;;;6.90;74.50;;;;;;5053177;28;20486;-68
2022/12/14 11:13:35;;;;;;;23.60;15.60;;;6.90;74.30;;;;;;5054049;28;20025;-68
2022/12/14 11:16:25;;;;;;;24.92;15.60;;;7.00;74.20;;;;;;5054819;28;20435;-68
2022/12/14 11:19:00;;;;;;;21.23;13.75;;;6.70;75.30;;;;;;5042029;28;20033;-69
2022/12/14 11:21:37;;;;;;;20.95;14.10;;;6.80;75.00;;;;;;5055262;28;20094;-69
2022/12/14 11:24:03;;;;;;;20.08;14.88;;;6.90;74.10;;;;;;5052430;28;20021;-68
2022/12/14 11:26:32;;;;;;;21.63;16.25;;;7.10;73.10;;;;;;5049146;28;20035;-68
2022/12/14 11:28:59;;;;;;;24.45;14.77;;;7.00;73.00;;;;;;5054586;28;20136;-69
2022/12/14 11:31:30;;;;;;;21.13;14.68;;;7.00;73.20;;;;;;5054240;28;20497;-69
2022/12/14 11:33:58;;;;;;;18.08;13.68;;;6.80;73.70;;;;;;5055256;28;20025;-69
2022/12/14 11:36:40;;;;;;;20.73;13.65;;;7.00;73.10;;;;;;5052028;28;20029;-69
2022/12/14 11:39:12;;;;;;;18.42;13.35;;;7.20;72.70;;;;;;5052940;28;20017;-69
2022/12/14 11:42:08;;;;;;;19.48;13.65;;;7.00;73.30;;;;;;5046696;28;20197;-68
2022/12/14 11:44:35;;;;;;;23.83;14.27;;;7.20;72.80;;;;;;5042657;28;20130;-69
2022/12/14 11:47:17;;;;;;;20.65;14.93;;;7.20;73.20;;;;;;5053961;28;20132;-69
2022/12/14 11:49:46;;;;;;;17.38;13.00;;;7.30;72.40;;;;;;5054169;28;20389;-69
2022/12/14 11:52:17;;;;;;;20.27;13.30;;;7.10;72.90;;;;;;5049189;28;20105;-66
2022/12/14 11:55:11;;;;;;;19.20;12.43;;;7.20;73.00;;;;;;5044764;28;20024;-65
2022/12/14 11:57:51;;;;;;;22.70;13.60;;;6.90;74.00;;;;;;5037348;28;20422;-69
2022/12/14 12:00:27;;;;;;;20.10;12.70;;;7.40;72.70;;;;;;5049932;28;20262;-69
2022/12/14 12:03:05;;;;;;;20.63;14.68;;;7.80;71.30;;;;;;5052436;28;20037;-69
2022/12/14 12:05:33;;;;;;;20.35;14.68;;;7.90;70.50;;;;;;5042508;28;20021;-68
2022/12/14 12:08:01;;;;;;;16.40;13.80;;;8.10;69.70;;;;;;5054801;28;20107;-68
2022/12/14 12:10:43;;;;;;;22.73;13.63;;;7.80;70.00;;;;;;5056600;28;20021;-68
2022/12/14 12:13:34;;;;;;;21.13;14.20;;;7.80;70.10;;;;;;5051596;28;20037;-69
2022/12/14 12:16:04;;;;;;;20.65;13.65;;;7.90;69.70;;;;;;5042847;28;20021;-70
2022/12/14 12:18:33;;;;;;;20.75;14.90;;;8.00;69.30;;;;;;5048705;28;20103;-70
2022/12/14 12:21:18;;;;;;;22.30;14.40;;;8.00;69.30;;;;;;5051770;28;20061;-71
2022/12/14 12:24:06;;;;;;;22.00;15.18;;;7.90;69.60;;;;;;5042840;28;20091;-70
2022/12/14 12:26:38;;;;;;;20.02;14.02;;;7.90;69.30;;;;;;5049912;28;20485;-70
2022/12/14 12:29:19;;;;;;;22.73;15.10;;;8.00;69.30;;;;;;5048151;28;20028;-68
2022/12/14 12:31:55;;;;;;;24.23;15.00;;;7.80;69.50;;;;;;5050097;28;20033;-69
2022/12/14 12:34:30;;;;;;;22.38;14.93;;;7.70;69.40;;;;;;5048907;28;20021;-69
2022/12/14 12:36:59;;;;;;;26.40;15.95;;;7.70;69.40;;;;;;5044689;28;20036;-69
2022/12/14 12:39:26;;;;;;;20.90;14.00;;;7.80;69.40;;;;;;5056605;28;20530;-67
2022/12/14 12:42:34;;;;;;;22.08;14.43;;;7.50;70.60;;;;;;5057968;28;20131;-68
2022/12/14 12:45:03;;;;;;;20.23;14.60;;;7.20;71.90;;;;;;4987835;28;20058;-68
2022/12/14 12:47:34;;;;;;;22.73;15.00;;;7.40;71.60;;;;;;5033348;28;20047;-67
2022/12/14 12:50:05;;;;;;;22.60;14.30;;;7.30;71.70;;;;;;5054636;28;20025;-70
2022/12/14 12:52:44;;;;;;;19.77;14.47;;;7.40;71.70;;;;;;5062869;28;20029;-70
2022/12/14 12:55:20;;;;;;;21.92;13.23;;;7.60;71.40;;;;;;5051906;28;20490;-70
2022/12/14 12:57:49;;;;;;;18.35;13.85;;;7.70;71.70;;;;;;5051103;28;20021;-70
2022/12/14 13:00:20;;;;;;;17.92;13.35;;;7.70;71.30;;;;;;5054936;28;20437;-69
2022/12/14 13:02:50;;;;;;;20.80;13.60;;;7.70;70.70;;;;;;5048803;28;20037;-69
2022/12/14 13:05:19;;;;;;;17.50;12.73;;;7.60;71.70;;;;;;5047301;28;20031;-69
2022/12/14 13:08:00;;;;;;;22.38;12.82;;;7.30;71.50;;;;;;5050391;28;20036;-70
2022/12/14 13:10:31;;;;;;;16.70;12.18;;;7.30;72.40;;;;;;5051571;28;20049;-69
2022/12/14 13:13:11;;;;;;;24.35;13.05;;;7.50;71.40;;;;;;5051848;28;20029;-67
2022/12/14 13:15:43;;;;;;;20.75;12.93;;;7.70;70.70;;;;;;5035910;28;20033;-71